createdAt,value
2023-06-09T00:00:29.180Z,59.00
2023-06-09T00:02:55.830Z,59.30
2023-06-09T00:05:22.424Z,59.50
2023-06-09T00:07:48.982Z,59.50
2023-06-09T00:10:15.634Z,59.40
2023-06-09T00:12:42.136Z,59.40
2023-06-09T00:15:08.959Z,59.50
2023-06-09T00:17:35.646Z,59.60
2023-06-09T00:20:02.082Z,59.50
2023-06-09T00:22:28.516Z,59.60
2023-06-09T00:24:54.989Z,59.60
2023-06-09T00:27:21.451Z,59.90
2023-06-09T00:29:47.928Z,59.70
2023-06-09T00:32:14.370Z,59.70
2023-06-09T00:34:40.828Z,59.50
2023-06-09T00:37:07.266Z,59.40
2023-06-09T00:39:33.739Z,59.50
2023-06-09T00:42:00.203Z,59.70
2023-06-09T00:44:26.684Z,59.70
2023-06-09T00:46:55.187Z,59.60
2023-06-09T00:49:21.678Z,59.60
2023-06-09T00:51:48.169Z,59.60
2023-06-09T00:54:14.600Z,59.90
2023-06-09T00:56:41.061Z,59.90
2023-06-09T00:59:07.550Z,60.00
2023-06-09T01:01:34.127Z,60.00
2023-06-09T01:04:01.077Z,59.90
2023-06-09T01:06:27.603Z,59.90
2023-06-09T01:08:54.048Z,59.80
2023-06-09T01:11:20.522Z,59.80
2023-06-09T01:13:47.006Z,60.00
2023-06-09T01:16:13.464Z,59.70
2023-06-09T01:18:39.955Z,59.70
2023-06-09T01:21:06.433Z,59.70
2023-06-09T01:23:32.929Z,59.80
2023-06-09T01:25:59.467Z,59.70
2023-06-09T01:28:25.919Z,59.70
2023-06-09T01:30:52.378Z,59.80
2023-06-09T01:33:18.852Z,59.80
2023-06-09T01:35:45.365Z,59.80
2023-06-09T01:38:11.796Z,59.90
2023-06-09T01:40:38.228Z,59.90
2023-06-09T01:43:04.668Z,60.00
2023-06-09T01:45:31.094Z,60.10
2023-06-09T01:47:57.598Z,60.10
2023-06-09T01:50:24.292Z,60.10
2023-06-09T01:52:50.744Z,60.10
2023-06-09T01:55:17.226Z,60.10
2023-06-09T01:57:43.686Z,60.10
2023-06-09T02:00:10.138Z,60.40
2023-06-09T02:02:36.666Z,60.50
2023-06-09T02:05:03.163Z,60.60
2023-06-09T02:07:29.625Z,60.60
2023-06-09T02:09:56.112Z,60.70
2023-06-09T02:12:22.597Z,60.80
2023-06-09T02:14:49.068Z,60.60
2023-06-09T02:17:15.505Z,60.60
2023-06-09T02:19:42.011Z,60.70
2023-06-09T02:22:08.518Z,60.90
2023-06-09T02:24:35.037Z,61.30
2023-06-09T02:27:01.516Z,61.50
2023-06-09T02:29:27.981Z,61.60
2023-06-09T02:31:54.637Z,61.80
2023-06-09T02:34:21.071Z,62.00
2023-06-09T02:36:47.539Z,62.10
2023-06-09T02:39:14.045Z,62.10
2023-06-09T02:41:40.538Z,62.40
2023-06-09T02:44:06.998Z,62.60
2023-06-09T02:46:33.473Z,62.70
2023-06-09T02:48:59.909Z,62.80
2023-06-09T02:51:26.478Z,62.70
2023-06-09T02:53:52.977Z,62.80
2023-06-09T02:56:19.427Z,63.00
2023-06-09T02:58:45.894Z,63.20
2023-06-09T03:01:12.393Z,63.40
2023-06-09T03:03:38.931Z,63.70
2023-06-09T03:06:05.485Z,63.90
2023-06-09T03:08:31.925Z,63.70
2023-06-09T03:10:58.395Z,63.50
2023-06-09T03:13:24.970Z,63.60
2023-06-09T03:15:51.396Z,64.30
2023-06-09T03:18:17.851Z,63.50
2023-06-09T03:20:44.277Z,63.30
2023-06-09T03:23:10.799Z,63.50
2023-06-09T03:25:37.267Z,63.80
2023-06-09T03:28:03.741Z,64.20
2023-06-09T03:30:30.244Z,64.30
2023-06-09T03:32:56.793Z,64.50
2023-06-09T03:35:23.300Z,64.40
2023-06-09T03:37:49.782Z,64.40
2023-06-09T03:40:16.224Z,64.60
2023-06-09T03:42:42.625Z,65.00
2023-06-09T03:45:09.067Z,65.10
2023-06-09T03:47:35.524Z,65.20
2023-06-09T03:50:02.032Z,65.20
2023-06-09T03:52:28.549Z,65.20
2023-06-09T03:54:55.131Z,65.40
2023-06-09T03:57:21.576Z,65.50
2023-06-09T03:59:48.066Z,65.60
2023-06-09T04:02:14.618Z,65.60
2023-06-09T04:04:41.187Z,65.50
2023-06-09T04:07:07.725Z,66.00
2023-06-09T04:09:34.228Z,66.30
2023-06-09T04:12:00.714Z,66.50
2023-06-09T04:14:27.187Z,66.70
2023-06-09T04:16:53.680Z,66.80
2023-06-09T04:19:20.112Z,66.90
2023-06-09T04:21:46.537Z,67.00
2023-06-09T04:24:13.062Z,67.00
2023-06-09T04:26:39.566Z,66.70
2023-06-09T04:29:06.004Z,66.80
2023-06-09T04:31:32.445Z,66.90
2023-06-09T04:33:58.888Z,67.20
2023-06-09T04:36:25.303Z,67.10
2023-06-09T04:38:51.860Z,67.00
2023-06-09T04:41:18.349Z,67.00
2023-06-09T04:43:44.841Z,67.20
2023-06-09T04:46:11.326Z,67.30
2023-06-09T04:48:37.831Z,67.20
2023-06-09T04:51:04.344Z,67.10
2023-06-09T04:53:30.853Z,67.00
2023-06-09T04:55:57.428Z,67.10
2023-06-09T04:58:24.322Z,67.10
2023-06-09T05:00:50.786Z,67.20
2023-06-09T05:03:17.247Z,67.30
2023-06-09T05:05:43.780Z,67.40
2023-06-09T05:08:10.247Z,67.50
2023-06-09T05:10:36.723Z,67.70
2023-06-09T05:13:03.209Z,67.70
2023-06-09T05:15:29.684Z,67.80
2023-06-09T05:17:56.252Z,67.70
2023-06-09T05:20:22.712Z,67.80
2023-06-09T05:22:49.224Z,67.90
2023-06-09T05:25:17.696Z,67.80
2023-06-09T05:27:44.719Z,67.70
2023-06-09T05:30:11.158Z,67.60
2023-06-09T05:32:37.642Z,67.40
2023-06-09T05:35:04.207Z,67.30
2023-06-09T05:37:30.682Z,67.30
2023-06-09T05:39:57.170Z,67.20
2023-06-09T05:42:23.635Z,67.10
2023-06-09T05:44:50.121Z,67.00
2023-06-09T05:47:16.606Z,67.10
2023-06-09T05:49:43.111Z,67.10
2023-06-09T05:52:09.545Z,67.10
2023-06-09T05:54:36.002Z,67.10
2023-06-09T05:57:02.437Z,67.00
2023-06-09T05:59:29.080Z,67.00
2023-06-09T06:01:55.696Z,67.00
2023-06-09T06:04:22.263Z,67.00
2023-06-09T06:06:48.700Z,67.00
2023-06-09T06:09:15.166Z,67.00
2023-06-09T06:11:41.644Z,67.10
2023-06-09T06:14:08.113Z,67.00
2023-06-09T06:16:34.648Z,67.00
2023-06-09T06:19:01.321Z,66.80
2023-06-09T06:21:27.760Z,66.80
2023-06-09T06:23:54.288Z,66.80
2023-06-09T06:26:20.755Z,66.70
2023-06-09T06:28:47.241Z,66.70
2023-06-09T06:31:13.760Z,66.60
2023-06-09T06:33:40.282Z,66.40
2023-06-09T06:36:06.701Z,66.20
2023-06-09T06:38:33.145Z,66.10
2023-06-09T06:40:59.560Z,65.90
2023-06-09T06:43:26.104Z,65.80
2023-06-09T06:45:52.612Z,65.60
2023-06-09T06:48:19.091Z,65.60
2023-06-09T06:50:45.579Z,65.50
2023-06-09T06:53:12.048Z,65.30
2023-06-09T06:55:38.600Z,65.10
2023-06-09T06:58:05.104Z,65.00
2023-06-09T07:00:31.604Z,64.70
2023-06-09T07:02:58.164Z,64.60
2023-06-09T07:05:24.829Z,64.50
2023-06-09T07:07:51.276Z,64.30
2023-06-09T07:10:17.705Z,64.10
2023-06-09T07:12:44.134Z,63.90
2023-06-09T07:15:10.603Z,63.60
2023-06-09T07:17:37.109Z,63.30
2023-06-09T07:20:03.595Z,62.90
2023-06-09T07:22:30.011Z,62.50
2023-06-09T07:24:56.476Z,61.90
2023-06-09T07:27:22.901Z,61.60
2023-06-09T07:29:49.322Z,61.10
2023-06-09T07:32:15.762Z,60.70
2023-06-09T07:34:42.340Z,60.40
2023-06-09T07:37:08.794Z,60.00
2023-06-09T07:39:35.260Z,59.50
2023-06-09T07:42:01.723Z,59.00
2023-06-09T07:44:28.189Z,58.50
2023-06-09T07:46:54.638Z,58.20
2023-06-09T07:49:21.662Z,57.80
2023-06-09T07:51:48.254Z,57.50
2023-06-09T07:54:14.759Z,57.00
2023-06-09T07:56:41.212Z,56.80
2023-06-09T07:59:07.661Z,56.30
2023-06-09T08:01:34.102Z,56.10
2023-06-09T08:04:00.695Z,55.70
2023-06-09T08:06:27.257Z,55.30
2023-06-09T08:08:53.757Z,54.80
2023-06-09T08:11:20.198Z,54.50
2023-06-09T08:13:46.657Z,54.60
2023-06-09T08:16:13.235Z,54.30
2023-06-09T08:18:39.710Z,54.00
2023-06-09T08:21:06.152Z,53.50
2023-06-09T08:23:32.625Z,53.20
2023-06-09T08:25:59.127Z,53.10
2023-06-09T08:28:25.584Z,52.50
2023-06-09T08:30:52.059Z,52.10
2023-06-09T08:33:18.580Z,51.80
2023-06-09T08:35:45.081Z,51.50
2023-06-09T08:38:11.564Z,51.10
2023-06-09T08:40:38.057Z,50.70
2023-06-09T08:43:04.532Z,50.50
2023-06-09T08:45:30.950Z,50.50
2023-06-09T08:47:57.500Z,50.10
2023-06-09T08:50:24.220Z,49.80
2023-06-09T08:52:50.697Z,49.60
2023-06-09T08:55:17.144Z,49.20
2023-06-09T08:57:43.592Z,49.00
2023-06-09T09:00:10.359Z,48.50
2023-06-09T09:02:37.147Z,48.30
2023-06-09T09:05:03.636Z,48.00
2023-06-09T09:07:30.114Z,47.90
2023-06-09T09:09:56.539Z,47.30
2023-06-09T09:12:23.028Z,47.00
2023-06-09T09:14:49.483Z,46.50
2023-06-09T09:17:15.986Z,46.20
2023-06-09T09:19:42.497Z,46.00
2023-06-09T09:22:08.974Z,45.70
2023-06-09T09:24:35.436Z,45.40
2023-06-09T09:27:01.924Z,44.90
2023-06-09T09:29:28.363Z,44.60
2023-06-09T09:31:55.025Z,44.40
2023-06-09T09:34:21.517Z,44.20
2023-06-09T09:36:48.109Z,43.70
2023-06-09T09:39:14.607Z,43.80
2023-06-09T09:41:41.062Z,43.60
2023-06-09T09:44:07.541Z,43.40
2023-06-09T09:46:35.077Z,43.10
2023-06-09T09:49:01.538Z,42.70
2023-06-09T09:51:28.084Z,43.20
2023-06-09T09:53:54.570Z,42.50
2023-06-09T09:56:21.060Z,42.40
2023-06-09T09:58:47.480Z,41.90
2023-06-09T10:01:13.994Z,41.30
2023-06-09T10:03:40.525Z,41.30
2023-06-09T10:06:07.103Z,40.90
2023-06-09T10:08:33.599Z,40.80
2023-06-09T10:11:00.101Z,40.40
2023-06-09T10:13:26.603Z,40.30
2023-06-09T10:15:53.027Z,40.00
2023-06-09T10:18:19.471Z,39.80
2023-06-09T10:20:45.926Z,39.70
2023-06-09T10:23:12.431Z,39.60
2023-06-09T10:25:38.887Z,39.10
2023-06-09T10:28:05.310Z,38.60
2023-06-09T10:30:31.749Z,38.50
2023-06-09T10:32:58.287Z,38.20
2023-06-09T10:35:24.740Z,38.00
2023-06-09T10:37:51.219Z,37.80
2023-06-09T10:40:17.691Z,37.40
2023-06-09T10:42:44.171Z,37.30
2023-06-09T10:45:10.707Z,37.10
2023-06-09T10:47:37.252Z,37.10
2023-06-09T10:50:03.801Z,37.00
2023-06-09T10:52:30.229Z,36.50
2023-06-09T10:54:56.700Z,36.10
2023-06-09T10:57:23.170Z,36.20
2023-06-09T10:59:49.652Z,36.10
2023-06-09T11:02:16.079Z,36.40
2023-06-09T11:04:42.759Z,35.90
2023-06-09T11:07:09.310Z,35.50
2023-06-09T11:09:35.802Z,35.80
2023-06-09T11:12:02.305Z,35.90
2023-06-09T11:14:29.702Z,35.70
2023-06-09T11:16:57.379Z,35.10
2023-06-09T11:19:26.268Z,35.00
2023-06-09T11:21:53.730Z,35.20
2023-06-09T11:24:20.310Z,35.20
2023-06-09T11:26:46.832Z,35.10
2023-06-09T11:29:13.302Z,34.50
2023-06-09T11:31:41.218Z,34.20
2023-06-09T11:34:07.819Z,34.50
2023-06-09T11:36:34.285Z,34.30
2023-06-09T11:39:00.798Z,34.20
2023-06-09T11:41:27.279Z,34.20
2023-06-09T11:43:53.733Z,34.30
2023-06-09T11:46:20.272Z,34.40
2023-06-09T11:48:46.780Z,34.10
2023-06-09T11:51:13.287Z,34.00
2023-06-09T11:53:39.746Z,33.90
2023-06-09T11:56:06.234Z,33.70
2023-06-09T11:58:32.654Z,33.70
2023-06-09T12:00:59.080Z,33.50
2023-06-09T12:03:25.662Z,33.00
2023-06-09T12:05:52.211Z,33.40
2023-06-09T12:08:18.717Z,33.30
2023-06-09T12:10:45.193Z,33.40
2023-06-09T12:13:11.674Z,33.10
2023-06-09T12:15:38.134Z,33.30
2023-06-09T12:18:04.714Z,32.90
2023-06-09T12:20:31.338Z,32.60
2023-06-09T12:22:57.769Z,33.50
2023-06-09T12:25:24.354Z,31.90
2023-06-09T12:27:50.862Z,31.60
2023-06-09T12:30:17.333Z,31.30
2023-06-09T12:32:43.885Z,31.50
2023-06-09T12:35:10.338Z,31.60
2023-06-09T12:37:36.762Z,31.80
2023-06-09T12:40:03.268Z,31.90
2023-06-09T12:42:29.734Z,31.60
2023-06-09T12:44:56.244Z,31.30
2023-06-09T12:47:22.706Z,31.40
2023-06-09T12:49:49.222Z,31.90
2023-06-09T12:52:15.722Z,31.80
2023-06-09T12:54:42.174Z,31.60
2023-06-09T12:57:08.591Z,31.80
2023-06-09T12:59:35.016Z,32.10
2023-06-09T13:02:01.549Z,32.20
2023-06-09T13:04:28.138Z,32.40
2023-06-09T13:06:54.728Z,32.00
2023-06-09T13:09:23.971Z,31.80
2023-06-09T13:11:50.551Z,31.20
2023-06-09T13:14:17.009Z,31.30
2023-06-09T13:16:43.520Z,31.10
2023-06-09T13:19:10.020Z,31.20
2023-06-09T13:21:44.564Z,31.70
2023-06-09T13:24:12.080Z,32.20
2023-06-09T13:26:38.579Z,32.20
2023-06-09T13:29:05.102Z,31.90
2023-06-09T13:31:31.707Z,31.80
2023-06-09T13:33:58.306Z,31.50
2023-06-09T13:36:24.787Z,31.40
2023-06-09T13:38:51.267Z,31.50
2023-06-09T13:41:17.730Z,32.00
2023-06-09T13:43:44.222Z,32.20
2023-06-09T13:46:10.693Z,32.50
2023-06-09T13:48:37.336Z,32.50
2023-06-09T13:51:03.944Z,32.20
2023-06-09T13:53:30.421Z,32.10
2023-06-09T13:55:56.868Z,31.80
2023-06-09T13:58:23.369Z,31.50
2023-06-09T14:00:49.868Z,31.10
2023-06-09T14:03:16.573Z,31.70
2023-06-09T14:05:43.196Z,31.80
2023-06-09T14:08:09.659Z,31.80
2023-06-09T14:10:36.153Z,31.60
2023-06-09T14:13:02.580Z,31.30
2023-06-09T14:15:30.287Z,31.20
2023-06-09T14:17:57.121Z,31.20
2023-06-09T14:20:23.682Z,31.10
2023-06-09T14:22:50.145Z,31.00
2023-06-09T14:25:16.618Z,31.10
2023-06-09T14:27:43.123Z,30.80
2023-06-09T14:30:09.589Z,30.60
2023-06-09T14:32:36.045Z,31.00
2023-06-09T14:35:02.535Z,31.30
2023-06-09T14:37:29.018Z,31.50
2023-06-09T14:39:55.420Z,31.80
2023-06-09T14:42:21.844Z,31.80
2023-06-09T14:44:48.294Z,31.60
2023-06-09T14:47:14.720Z,31.50
2023-06-09T14:49:41.158Z,31.30
2023-06-09T14:52:07.630Z,31.30
2023-06-09T14:54:34.054Z,31.00
2023-06-09T14:57:00.455Z,30.90
2023-06-09T14:59:26.925Z,31.00
2023-06-09T15:01:53.419Z,30.80
2023-06-09T15:04:19.916Z,30.60
2023-06-09T15:06:46.381Z,30.50
2023-06-09T15:09:12.817Z,30.40
2023-06-09T15:11:39.275Z,30.70
2023-06-09T15:14:05.717Z,31.10
2023-06-09T15:16:32.355Z,31.30
2023-06-09T15:18:58.884Z,31.40
2023-06-09T15:21:25.502Z,31.10
2023-06-09T15:23:52.060Z,31.30
2023-06-09T15:26:18.575Z,31.20
2023-06-09T15:28:45.078Z,31.20
2023-06-09T15:31:11.586Z,31.40
2023-06-09T15:33:38.131Z,31.60
2023-06-09T15:36:04.588Z,31.90
2023-06-09T15:38:31.109Z,32.10
2023-06-09T15:40:57.717Z,32.10
2023-06-09T15:43:24.358Z,32.10
2023-06-09T15:45:50.818Z,32.10
2023-06-09T15:48:17.304Z,32.20
2023-06-09T15:50:43.872Z,32.50
2023-06-09T15:53:10.444Z,33.10
2023-06-09T15:55:36.906Z,33.60
2023-06-09T15:58:03.320Z,34.00
2023-06-09T16:00:29.767Z,34.10
2023-06-09T16:02:56.317Z,33.90
2023-06-09T16:05:22.793Z,33.60
2023-06-09T16:07:49.280Z,33.60
2023-06-09T16:10:15.752Z,33.60
2023-06-09T16:12:42.251Z,33.50
2023-06-09T16:15:08.912Z,33.50
2023-06-09T16:17:35.582Z,33.60
2023-06-09T16:20:02.070Z,33.80
2023-06-09T16:22:28.561Z,33.90
2023-06-09T16:24:55.176Z,34.00
2023-06-09T16:27:21.603Z,34.30
2023-06-09T16:29:48.101Z,34.50
2023-06-09T16:32:14.581Z,34.50
2023-06-09T16:34:41.051Z,34.60
2023-06-09T16:37:07.525Z,34.60
2023-06-09T16:39:33.970Z,34.40
2023-06-09T16:42:00.409Z,34.70
2023-06-09T16:44:26.890Z,34.60
2023-06-09T16:46:53.527Z,34.60
2023-06-09T16:49:20.069Z,34.50
2023-06-09T16:51:46.499Z,34.40
2023-06-09T16:54:13.029Z,34.50
2023-06-09T16:56:39.525Z,34.70
2023-06-09T16:59:05.960Z,34.80
2023-06-09T17:01:32.538Z,34.70
2023-06-09T17:03:59.181Z,34.70
2023-06-09T17:06:25.756Z,34.80
2023-06-09T17:08:52.244Z,34.60
2023-06-09T17:11:18.724Z,34.70
2023-06-09T17:13:45.230Z,34.90
2023-06-09T17:16:11.709Z,35.10
2023-06-09T17:18:38.260Z,35.30
2023-06-09T17:21:04.775Z,35.20
2023-06-09T17:23:31.251Z,35.30
2023-06-09T17:25:57.753Z,35.80
2023-06-09T17:28:24.602Z,35.20
2023-06-09T17:30:51.071Z,35.20
2023-06-09T17:33:17.547Z,35.30
2023-06-09T17:35:44.048Z,35.30
2023-06-09T17:38:10.659Z,35.50
2023-06-09T17:40:37.130Z,35.30
2023-06-09T17:43:03.563Z,35.40
2023-06-09T17:45:29.985Z,35.50
2023-06-09T17:47:56.534Z,35.40
2023-06-09T17:50:23.197Z,35.70
2023-06-09T17:52:49.787Z,35.90
2023-06-09T17:55:16.277Z,36.00
2023-06-09T17:57:42.788Z,36.10
2023-06-09T18:00:09.219Z,36.30
2023-06-09T18:02:35.709Z,36.40
2023-06-09T18:05:02.203Z,36.60
2023-06-09T18:07:28.684Z,36.70
2023-06-09T18:09:55.316Z,36.80
2023-06-09T18:12:21.748Z,36.90
2023-06-09T18:14:48.220Z,36.90
2023-06-09T18:17:14.745Z,36.80
2023-06-09T18:19:41.389Z,36.90
2023-06-09T18:22:07.814Z,36.80
2023-06-09T18:24:34.257Z,37.00
2023-06-09T18:27:00.795Z,37.00
2023-06-09T18:29:27.294Z,37.10
2023-06-09T18:31:53.759Z,37.20
2023-06-09T18:34:20.327Z,37.10
2023-06-09T18:36:46.798Z,37.30
2023-06-09T18:39:13.273Z,37.50
2023-06-09T18:41:39.975Z,37.60
2023-06-09T18:44:06.506Z,37.70
2023-06-09T18:46:32.978Z,37.80
2023-06-09T18:49:01.753Z,37.90
2023-06-09T18:51:28.619Z,38.10
2023-06-09T18:53:55.155Z,38.20
2023-06-09T18:56:21.657Z,38.30
2023-06-09T18:58:48.117Z,38.40
2023-06-09T19:01:14.654Z,38.50
2023-06-09T19:03:41.161Z,38.60
2023-06-09T19:06:07.655Z,38.70
2023-06-09T19:08:34.160Z,38.70
2023-06-09T19:11:00.667Z,38.90
2023-06-09T19:13:27.185Z,38.90
2023-06-09T19:15:53.618Z,39.00
2023-06-09T19:18:20.054Z,39.20
2023-06-09T19:20:46.482Z,39.20
2023-06-09T19:23:13.146Z,39.30
2023-06-09T19:25:39.635Z,39.40
2023-06-09T19:28:06.141Z,39.40
2023-06-09T19:30:32.647Z,39.40
2023-06-09T19:32:59.208Z,39.40
2023-06-09T19:35:25.729Z,39.40
2023-06-09T19:37:52.233Z,39.40
2023-06-09T19:40:18.679Z,39.50
2023-06-09T19:42:45.131Z,39.50
2023-06-09T19:45:11.774Z,39.60
2023-06-09T19:47:38.333Z,39.60
2023-06-09T19:50:04.799Z,39.80
2023-06-09T19:52:31.294Z,39.80
2023-06-09T19:54:57.764Z,40.00
2023-06-09T19:57:24.655Z,40.10
2023-06-09T19:59:51.182Z,40.20
2023-06-09T20:02:20.167Z,40.50
2023-06-09T20:04:46.959Z,40.70
2023-06-09T20:07:13.405Z,40.90
2023-06-09T20:09:39.822Z,41.10
2023-06-09T20:12:06.320Z,41.20
2023-06-09T20:14:32.825Z,41.20
2023-06-09T20:16:59.328Z,41.20
2023-06-09T20:19:25.903Z,41.40
2023-06-09T20:21:52.407Z,41.80
2023-06-09T20:24:18.919Z,41.70
2023-06-09T20:26:45.521Z,41.80
2023-06-09T20:29:11.965Z,41.90
2023-06-09T20:31:38.437Z,42.10
2023-06-09T20:34:04.927Z,42.30
2023-06-09T20:36:31.353Z,42.50
2023-06-09T20:38:57.820Z,42.80
2023-06-09T20:41:24.612Z,43.10
2023-06-09T20:43:51.101Z,43.40
2023-06-09T20:46:17.580Z,43.60
2023-06-09T20:48:44.128Z,43.80
2023-06-09T20:51:10.730Z,44.00
2023-06-09T20:53:37.200Z,44.20
2023-06-09T20:56:03.633Z,44.40
2023-06-09T20:58:30.083Z,44.50
2023-06-09T21:00:56.600Z,44.70
2023-06-09T21:03:23.264Z,44.80
2023-06-09T21:05:49.824Z,44.90
2023-06-09T21:08:16.292Z,45.10
2023-06-09T21:10:42.775Z,45.30
2023-06-09T21:13:09.688Z,45.40
2023-06-09T21:15:36.381Z,45.60
2023-06-09T21:18:03.023Z,45.70
2023-06-09T21:20:29.595Z,45.80
2023-06-09T21:22:56.098Z,45.80
2023-06-09T21:25:22.712Z,46.00
2023-06-09T21:27:49.247Z,46.00
2023-06-09T21:30:15.704Z,46.00
2023-06-09T21:32:42.242Z,46.20
2023-06-09T21:35:09.038Z,45.80
2023-06-09T21:37:35.749Z,45.80
2023-06-09T21:40:02.222Z,45.80
2023-06-09T21:42:28.677Z,45.80
2023-06-09T21:44:55.158Z,45.70
2023-06-09T21:47:21.703Z,45.70
2023-06-09T21:49:48.229Z,45.70
2023-06-09T21:52:14.712Z,45.70
2023-06-09T21:54:41.193Z,45.70
2023-06-09T21:57:10.376Z,45.80
2023-06-09T21:59:37.366Z,45.80
2023-06-09T22:02:03.867Z,45.80
2023-06-09T22:04:30.364Z,45.90
2023-06-09T22:06:56.962Z,45.90
2023-06-09T22:09:23.509Z,45.90
2023-06-09T22:11:50.012Z,45.80
2023-06-09T22:14:16.451Z,45.80
2023-06-09T22:16:42.947Z,45.70
2023-06-09T22:19:09.455Z,45.60
2023-06-09T22:21:35.894Z,45.60
2023-06-09T22:24:02.457Z,45.60
2023-06-09T22:26:29.026Z,45.60
2023-06-09T22:28:55.803Z,45.70
2023-06-09T22:31:22.278Z,45.70
2023-06-09T22:33:48.754Z,45.80
2023-06-09T22:36:15.223Z,45.80
2023-06-09T22:38:41.809Z,45.80
2023-06-09T22:41:08.248Z,45.80
2023-06-09T22:43:34.713Z,45.80
2023-06-09T22:46:01.133Z,45.70
2023-06-09T22:48:27.615Z,45.80
2023-06-09T22:50:54.071Z,45.70
2023-06-09T22:53:20.536Z,45.70
2023-06-09T22:55:47.019Z,45.70
2023-06-09T22:58:13.489Z,45.60
2023-06-09T23:00:39.930Z,45.50
2023-06-09T23:03:06.454Z,45.40
2023-06-09T23:05:33.080Z,45.10
2023-06-09T23:07:59.594Z,45.00
2023-06-09T23:10:26.037Z,44.90
2023-06-09T23:12:52.499Z,44.80
2023-06-09T23:15:19.015Z,44.80
2023-06-09T23:17:45.456Z,44.70
2023-06-09T23:20:12.010Z,44.60
2023-06-09T23:22:38.478Z,44.50
2023-06-09T23:25:04.960Z,44.50
2023-06-09T23:27:31.462Z,44.40
2023-06-09T23:29:57.920Z,44.50
2023-06-09T23:32:24.556Z,44.50
2023-06-09T23:34:51.201Z,44.50
2023-06-09T23:37:17.636Z,44.40
2023-06-09T23:39:44.098Z,44.50
2023-06-09T23:42:10.565Z,44.60
2023-06-09T23:44:37.039Z,44.60
2023-06-09T23:47:03.533Z,44.60
2023-06-09T23:49:30.037Z,44.70
2023-06-09T23:51:56.498Z,44.70
2023-06-09T23:54:22.976Z,44.70
2023-06-09T23:56:49.395Z,44.60
2023-06-09T23:59:15.819Z,44.70
